sensor_id;sensor_type;location;lat;lon;timestamp;temperature;humidity
17845;DHT22;9047;53.486;10.218;2023-03-01T00:00:01;-1.90;99.90
17845;DHT22;9047;53.486;10.218;2023-03-01T00:02:34;-2.10;99.90
17845;DHT22;9047;53.486;10.218;2023-03-01T00:05:09;-2.00;99.90
17845;DHT22;9047;53.486;10.218;2023-03-01T00:09:30;-2.00;99.90
17845;DHT22;9047;53.486;10.218;2023-03-01T00:11:04;-2.00;99.90
17845;DHT22;9047;53.486;10.218;2023-03-01T00:14:17;-2.10;99.90
17845;DHT22;9047;53.486;10.218;2023-03-01T00:17:04;-2.10;99.90
17845;DHT22;9047;53.486;10.218;2023-03-01T00:20:00;-2.10;99.90
17845;DHT22;9047;53.486;10.218;2023-03-01T00:31:56;-2.10;99.90
17845;DHT22;9047;53.486;10.218;2023-03-01T00:32:53;-2.10;99.90
17845;DHT22;9047;53.486;10.218;2023-03-01T00:39:48;-2.10;99.90
17845;DHT22;9047;53.486;10.218;2023-03-01T00:45:31;-2.20;99.90
17845;DHT22;9047;53.486;10.218;2023-03-01T00:48:18;-2.20;99.90
17845;DHT22;9047;53.486;10.218;2023-03-01T00:53:29;-2.20;99.90
17845;DHT22;9047;53.486;10.218;2023-03-01T00:54:18;-2.20;99.90
17845;DHT22;9047;53.486;10.218;2023-03-01T00:56:48;-2.20;99.90
17845;DHT22;9047;53.486;10.218;2023-03-01T00:59:15;-2.20;99.90
17845;DHT22;9047;53.486;10.218;2023-03-01T01:02:04;-2.30;99.90
17845;DHT22;9047;53.486;10.218;2023-03-01T01:05:05;-2.30;99.90
17845;DHT22;9047;53.486;10.218;2023-03-01T01:07:34;-2.30;99.90
17845;DHT22;9047;53.486;10.218;2023-03-01T01:10:09;-2.30;99.90
17845;DHT22;9047;53.486;10.218;2023-03-01T01:12:45;-2.30;99.90
17845;DHT22;9047;53.486;10.218;2023-03-01T01:15:18;-2.40;99.90
17845;DHT22;9047;53.486;10.218;2023-03-01T01:18:22;-2.30;99.90
17845;DHT22;9047;53.486;10.218;2023-03-01T01:21:05;-2.30;99.90
17845;DHT22;9047;53.486;10.218;2023-03-01T01:23:41;-2.40;99.90
17845;DHT22;9047;53.486;10.218;2023-03-01T01:26:11;-2.40;99.90
17845;DHT22;9047;53.486;10.218;2023-03-01T01:28:41;-2.40;99.90
17845;DHT22;9047;53.486;10.218;2023-03-01T01:31:17;-2.40;99.90
17845;DHT22;9047;53.486;10.218;2023-03-01T01:34:15;-2.40;99.90
17845;DHT22;9047;53.486;10.218;2023-03-01T01:36:48;-2.40;99.90
17845;DHT22;9047;53.486;10.218;2023-03-01T01:42:44;-2.50;99.90
17845;DHT22;9047;53.486;10.218;2023-03-01T01:45:45;-2.40;99.90
17845;DHT22;9047;53.486;10.218;2023-03-01T01:48:18;-2.50;99.90
17845;DHT22;9047;53.486;10.218;2023-03-01T01:50:59;-2.40;99.90
17845;DHT22;9047;53.486;10.218;2023-03-01T01:53:27;-2.50;99.90
17845;DHT22;9047;53.486;10.218;2023-03-01T01:55:57;-2.60;99.90
17845;DHT22;9047;53.486;10.218;2023-03-01T01:58:27;-2.60;99.90
17845;DHT22;9047;53.486;10.218;2023-03-01T02:01:00;-2.60;99.90
17845;DHT22;9047;53.486;10.218;2023-03-01T02:03:33;-2.60;99.90
17845;DHT22;9047;53.486;10.218;2023-03-01T02:06:13;-2.60;99.90
17845;DHT22;9047;53.486;10.218;2023-03-01T02:08:44;-2.60;99.90
17845;DHT22;9047;53.486;10.218;2023-03-01T02:11:17;-2.40;99.90
17845;DHT22;9047;53.486;10.218;2023-03-01T02:14:14;-2.50;99.90
17845;DHT22;9047;53.486;10.218;2023-03-01T02:16:45;-2.60;99.90
17845;DHT22;9047;53.486;10.218;2023-03-01T02:19:32;-2.50;99.90
17845;DHT22;9047;53.486;10.218;2023-03-01T02:22:25;-2.50;99.90
17845;DHT22;9047;53.486;10.218;2023-03-01T02:28:05;-2.50;99.90
17845;DHT22;9047;53.486;10.218;2023-03-01T02:30:43;-2.50;99.90
17845;DHT22;9047;53.486;10.218;2023-03-01T02:33:26;-2.50;99.90
17845;DHT22;9047;53.486;10.218;2023-03-01T02:36:05;-2.60;99.90
17845;DHT22;9047;53.486;10.218;2023-03-01T02:38:39;-2.50;99.90
17845;DHT22;9047;53.486;10.218;2023-03-01T02:41:19;-2.50;99.90
17845;DHT22;9047;53.486;10.218;2023-03-01T02:44:01;-2.40;99.90
17845;DHT22;9047;53.486;10.218;2023-03-01T02:47:00;-2.30;99.90
17845;DHT22;9047;53.486;10.218;2023-03-01T02:49:39;-2.20;99.90
17845;DHT22;9047;53.486;10.218;2023-03-01T02:52:22;-2.00;99.90
17845;DHT22;9047;53.486;10.218;2023-03-01T02:55:05;-1.80;99.90
17845;DHT22;9047;53.486;10.218;2023-03-01T02:57:40;-1.70;99.90
17845;DHT22;9047;53.486;10.218;2023-03-01T03:00:14;-1.60;99.90
17845;DHT22;9047;53.486;10.218;2023-03-01T03:02:55;-1.50;99.90
17845;DHT22;9047;53.486;10.218;2023-03-01T03:05:25;-1.40;99.90
17845;DHT22;9047;53.486;10.218;2023-03-01T03:08:02;-1.40;99.90
17845;DHT22;9047;53.486;10.218;2023-03-01T03:10:34;-1.20;99.90
17845;DHT22;9047;53.486;10.218;2023-03-01T03:13:17;-1.10;99.90
17845;DHT22;9047;53.486;10.218;2023-03-01T03:15:48;-1.00;99.90
17845;DHT22;9047;53.486;10.218;2023-03-01T03:18:17;-0.90;99.90
17845;DHT22;9047;53.486;10.218;2023-03-01T03:24:03;-0.70;99.90
17845;DHT22;9047;53.486;10.218;2023-03-01T03:26:37;-0.70;99.90
17845;DHT22;9047;53.486;10.218;2023-03-01T03:29:10;-0.60;99.90
17845;DHT22;9047;53.486;10.218;2023-03-01T03:31:40;-0.60;99.90
17845;DHT22;9047;53.486;10.218;2023-03-01T03:37:25;-0.50;99.90
17845;DHT22;9047;53.486;10.218;2023-03-01T03:40:13;-0.50;99.90
17845;DHT22;9047;53.486;10.218;2023-03-01T03:42:55;-0.50;99.90
17845;DHT22;9047;53.486;10.218;2023-03-01T03:45:23;-0.50;99.90
17845;DHT22;9047;53.486;10.218;2023-03-01T03:48:04;-0.40;99.90
17845;DHT22;9047;53.486;10.218;2023-03-01T03:50:38;-0.50;99.90
17845;DHT22;9047;53.486;10.218;2023-03-01T03:53:11;-0.40;99.90
17845;DHT22;9047;53.486;10.218;2023-03-01T03:55:40;-0.20;99.90
17845;DHT22;9047;53.486;10.218;2023-03-01T03:59:06;-0.20;99.90
17845;DHT22;9047;53.486;10.218;2023-03-01T04:01:40;-0.30;99.90
17845;DHT22;9047;53.486;10.218;2023-03-01T04:04:45;-0.30;99.90
17845;DHT22;9047;53.486;10.218;2023-03-01T04:07:35;-0.20;99.90
17845;DHT22;9047;53.486;10.218;2023-03-01T04:10:19;-0.20;99.90
17845;DHT22;9047;53.486;10.218;2023-03-01T04:16:22;0.00;99.90
17845;DHT22;9047;53.486;10.218;2023-03-01T04:20:08;0.00;99.90
17845;DHT22;9047;53.486;10.218;2023-03-01T04:22:28;0.00;99.90
17845;DHT22;9047;53.486;10.218;2023-03-01T04:25:06;0.10;99.90
17845;DHT22;9047;53.486;10.218;2023-03-01T04:31:11;0.10;99.90
17845;DHT22;9047;53.486;10.218;2023-03-01T04:34:22;0.10;99.90
17845;DHT22;9047;53.486;10.218;2023-03-01T04:40:15;0.20;99.90
17845;DHT22;9047;53.486;10.218;2023-03-01T04:40:52;0.10;99.90
17845;DHT22;9047;53.486;10.218;2023-03-01T04:43:26;0.20;99.90
17845;DHT22;9047;53.486;10.218;2023-03-01T04:46:00;0.20;99.90
17845;DHT22;9047;53.486;10.218;2023-03-01T04:52:04;0.20;99.90
17845;DHT22;9047;53.486;10.218;2023-03-01T04:55:28;0.30;99.90
17845;DHT22;9047;53.486;10.218;2023-03-01T04:58:03;0.30;99.90
17845;DHT22;9047;53.486;10.218;2023-03-01T05:00:51;0.40;99.90
17845;DHT22;9047;53.486;10.218;2023-03-01T05:03:52;0.40;99.90
17845;DHT22;9047;53.486;10.218;2023-03-01T05:06:53;0.40;99.90
17845;DHT22;9047;53.486;10.218;2023-03-01T05:09:35;0.50;99.90
17845;DHT22;9047;53.486;10.218;2023-03-01T05:12:41;0.50;99.90
17845;DHT22;9047;53.486;10.218;2023-03-01T05:15:16;0.60;99.90
17845;DHT22;9047;53.486;10.218;2023-03-01T05:18:06;0.60;99.90
17845;DHT22;9047;53.486;10.218;2023-03-01T05:20:49;0.60;99.90
17845;DHT22;9047;53.486;10.218;2023-03-01T05:23:26;0.70;99.90
17845;DHT22;9047;53.486;10.218;2023-03-01T05:26:08;0.70;99.90
17845;DHT22;9047;53.486;10.218;2023-03-01T05:28:44;0.70;99.90
17845;DHT22;9047;53.486;10.218;2023-03-01T05:31:27;0.80;99.90
17845;DHT22;9047;53.486;10.218;2023-03-01T05:33:59;0.90;99.90
17845;DHT22;9047;53.486;10.218;2023-03-01T05:36:42;0.90;99.90
17845;DHT22;9047;53.486;10.218;2023-03-01T05:42:42;1.00;99.90
17845;DHT22;9047;53.486;10.218;2023-03-01T05:45:39;1.10;99.90
17845;DHT22;9047;53.486;10.218;2023-03-01T05:48:16;1.00;99.90
17845;DHT22;9047;53.486;10.218;2023-03-01T05:50:48;1.10;99.90
17845;DHT22;9047;53.486;10.218;2023-03-01T05:53:20;1.10;99.90
17845;DHT22;9047;53.486;10.218;2023-03-01T05:55:47;1.10;99.90
17845;DHT22;9047;53.486;10.218;2023-03-01T05:58:18;1.10;99.90
17845;DHT22;9047;53.486;10.218;2023-03-01T06:01:03;1.20;99.90
17845;DHT22;9047;53.486;10.218;2023-03-01T06:03:32;1.20;99.90
17845;DHT22;9047;53.486;10.218;2023-03-01T06:05:59;1.20;99.90
17845;DHT22;9047;53.486;10.218;2023-03-01T06:08:29;1.10;99.90
17845;DHT22;9047;53.486;10.218;2023-03-01T06:10:56;1.10;99.90
17845;DHT22;9047;53.486;10.218;2023-03-01T06:13:24;1.20;99.90
17845;DHT22;9047;53.486;10.218;2023-03-01T06:15:53;1.10;99.90
17845;DHT22;9047;53.486;10.218;2023-03-01T06:18:23;1.10;99.90
17845;DHT22;9047;53.486;10.218;2023-03-01T06:20:53;1.20;99.90
17845;DHT22;9047;53.486;10.218;2023-03-01T06:23:25;1.10;99.90
17845;DHT22;9047;53.486;10.218;2023-03-01T06:25:55;1.20;99.90
17845;DHT22;9047;53.486;10.218;2023-03-01T06:28:23;1.00;99.90
17845;DHT22;9047;53.486;10.218;2023-03-01T06:30:59;1.10;99.90
17845;DHT22;9047;53.486;10.218;2023-03-01T06:33:39;1.00;99.90
17845;DHT22;9047;53.486;10.218;2023-03-01T06:36:17;0.90;99.90
17845;DHT22;9047;53.486;10.218;2023-03-01T06:38:46;1.00;99.90
17845;DHT22;9047;53.486;10.218;2023-03-01T06:41:23;0.90;99.90
17845;DHT22;9047;53.486;10.218;2023-03-01T06:43:50;1.00;99.90
17845;DHT22;9047;53.486;10.218;2023-03-01T06:46:22;1.00;99.90
17845;DHT22;9047;53.486;10.218;2023-03-01T06:48:51;1.00;99.90
17845;DHT22;9047;53.486;10.218;2023-03-01T06:51:18;1.10;99.90
17845;DHT22;9047;53.486;10.218;2023-03-01T06:53:46;1.10;99.90
17845;DHT22;9047;53.486;10.218;2023-03-01T06:56:17;1.10;99.90
17845;DHT22;9047;53.486;10.218;2023-03-01T06:58:44;1.20;99.90
17845;DHT22;9047;53.486;10.218;2023-03-01T07:01:12;1.20;99.90
17845;DHT22;9047;53.486;10.218;2023-03-01T07:03:40;1.30;99.90
17845;DHT22;9047;53.486;10.218;2023-03-01T07:06:09;1.40;99.90
17845;DHT22;9047;53.486;10.218;2023-03-01T07:08:38;1.40;99.90
17845;DHT22;9047;53.486;10.218;2023-03-01T07:11:05;1.50;99.90
17845;DHT22;9047;53.486;10.218;2023-03-01T07:13:37;1.60;99.90
17845;DHT22;9047;53.486;10.218;2023-03-01T07:16:06;1.70;99.90
17845;DHT22;9047;53.486;10.218;2023-03-01T07:18:33;1.80;99.90
17845;DHT22;9047;53.486;10.218;2023-03-01T07:21:04;1.90;99.90
17845;DHT22;9047;53.486;10.218;2023-03-01T07:23:31;2.00;99.90
17845;DHT22;9047;53.486;10.218;2023-03-01T07:25:59;2.20;99.90
17845;DHT22;9047;53.486;10.218;2023-03-01T07:28:27;2.20;99.90
17845;DHT22;9047;53.486;10.218;2023-03-01T07:31:02;2.20;99.90
17845;DHT22;9047;53.486;10.218;2023-03-01T07:33:31;2.40;99.90
17845;DHT22;9047;53.486;10.218;2023-03-01T07:35:58;2.40;99.90
17845;DHT22;9047;53.486;10.218;2023-03-01T07:38:25;2.40;99.90
17845;DHT22;9047;53.486;10.218;2023-03-01T07:40:53;2.50;99.90
17845;DHT22;9047;53.486;10.218;2023-03-01T07:43:20;2.60;99.90
17845;DHT22;9047;53.486;10.218;2023-03-01T07:45:48;2.60;99.90
17845;DHT22;9047;53.486;10.218;2023-03-01T07:48:17;2.70;99.90
17845;DHT22;9047;53.486;10.218;2023-03-01T07:50:44;2.60;99.90
17845;DHT22;9047;53.486;10.218;2023-03-01T07:53:11;2.70;99.90
17845;DHT22;9047;53.486;10.218;2023-03-01T07:55:39;2.70;99.90
17845;DHT22;9047;53.486;10.218;2023-03-01T07:58:07;2.70;99.90
17845;DHT22;9047;53.486;10.218;2023-03-01T08:00:34;2.80;99.90
17845;DHT22;9047;53.486;10.218;2023-03-01T08:03:02;2.80;99.90
17845;DHT22;9047;53.486;10.218;2023-03-01T08:05:32;2.80;99.90
17845;DHT22;9047;53.486;10.218;2023-03-01T08:08:00;2.90;99.90
17845;DHT22;9047;53.486;10.218;2023-03-01T08:10:29;3.00;99.90
17845;DHT22;9047;53.486;10.218;2023-03-01T08:12:59;3.00;99.90
17845;DHT22;9047;53.486;10.218;2023-03-01T08:15:27;3.00;99.90
17845;DHT22;9047;53.486;10.218;2023-03-01T08:17:57;3.00;99.90
17845;DHT22;9047;53.486;10.218;2023-03-01T08:20:26;3.00;99.90
17845;DHT22;9047;53.486;10.218;2023-03-01T08:22:57;3.20;99.90
17845;DHT22;9047;53.486;10.218;2023-03-01T08:25:24;3.20;99.90
17845;DHT22;9047;53.486;10.218;2023-03-01T08:27:52;3.30;99.90
17845;DHT22;9047;53.486;10.218;2023-03-01T08:30:21;3.40;99.90
17845;DHT22;9047;53.486;10.218;2023-03-01T08:32:50;3.50;99.90
17845;DHT22;9047;53.486;10.218;2023-03-01T08:35:20;3.60;99.90
17845;DHT22;9047;53.486;10.218;2023-03-01T08:37:47;3.70;99.90
17845;DHT22;9047;53.486;10.218;2023-03-01T08:40:16;3.70;99.90
17845;DHT22;9047;53.486;10.218;2023-03-01T08:42:45;3.80;99.90
17845;DHT22;9047;53.486;10.218;2023-03-01T08:45:14;4.00;99.90
17845;DHT22;9047;53.486;10.218;2023-03-01T08:47:43;4.10;99.90
17845;DHT22;9047;53.486;10.218;2023-03-01T08:50:12;4.20;99.90
17845;DHT22;9047;53.486;10.218;2023-03-01T08:52:40;4.30;99.90
17845;DHT22;9047;53.486;10.218;2023-03-01T08:55:08;4.40;99.90
17845;DHT22;9047;53.486;10.218;2023-03-01T08:57:42;4.50;99.90
17845;DHT22;9047;53.486;10.218;2023-03-01T09:00:10;4.60;99.90
17845;DHT22;9047;53.486;10.218;2023-03-01T09:02:41;4.70;99.90
17845;DHT22;9047;53.486;10.218;2023-03-01T09:05:09;4.80;99.90
17845;DHT22;9047;53.486;10.218;2023-03-01T09:07:37;4.90;99.90
17845;DHT22;9047;53.486;10.218;2023-03-01T09:10:07;5.00;99.90
17845;DHT22;9047;53.486;10.218;2023-03-01T09:12:35;5.20;99.90
17845;DHT22;9047;53.486;10.218;2023-03-01T09:15:06;5.40;99.90
17845;DHT22;9047;53.486;10.218;2023-03-01T09:17:33;5.60;99.90
17845;DHT22;9047;53.486;10.218;2023-03-01T09:20:00;5.80;99.90
17845;DHT22;9047;53.486;10.218;2023-03-01T09:22:27;6.00;99.90
17845;DHT22;9047;53.486;10.218;2023-03-01T09:24:54;6.10;99.90
17845;DHT22;9047;53.486;10.218;2023-03-01T09:27:22;6.20;99.90
17845;DHT22;9047;53.486;10.218;2023-03-01T09:29:51;6.30;99.90
17845;DHT22;9047;53.486;10.218;2023-03-01T09:32:19;6.40;99.90
17845;DHT22;9047;53.486;10.218;2023-03-01T09:34:47;6.60;99.90
17845;DHT22;9047;53.486;10.218;2023-03-01T09:37:31;6.70;99.90
17845;DHT22;9047;53.486;10.218;2023-03-01T09:39:59;6.70;99.90
17845;DHT22;9047;53.486;10.218;2023-03-01T09:42:28;6.70;99.90
17845;DHT22;9047;53.486;10.218;2023-03-01T09:44:59;6.70;99.90
17845;DHT22;9047;53.486;10.218;2023-03-01T09:47:35;6.70;99.90
17845;DHT22;9047;53.486;10.218;2023-03-01T09:50:05;6.70;99.90
17845;DHT22;9047;53.486;10.218;2023-03-01T09:52:40;6.60;99.90
17845;DHT22;9047;53.486;10.218;2023-03-01T09:55:13;6.60;99.90
17845;DHT22;9047;53.486;10.218;2023-03-01T09:57:48;6.70;99.90
17845;DHT22;9047;53.486;10.218;2023-03-01T10:00:27;6.60;99.90
17845;DHT22;9047;53.486;10.218;2023-03-01T10:03:03;6.60;99.90
17845;DHT22;9047;53.486;10.218;2023-03-01T10:05:44;6.60;99.90
17845;DHT22;9047;53.486;10.218;2023-03-01T10:08:27;6.70;99.90
17845;DHT22;9047;53.486;10.218;2023-03-01T10:10:57;6.70;99.90
17845;DHT22;9047;53.486;10.218;2023-03-01T10:13:33;6.80;99.90
17845;DHT22;9047;53.486;10.218;2023-03-01T10:16:05;6.80;99.90
17845;DHT22;9047;53.486;10.218;2023-03-01T10:18:40;6.90;99.90
17845;DHT22;9047;53.486;10.218;2023-03-01T10:21:14;6.90;99.90
17845;DHT22;9047;53.486;10.218;2023-03-01T10:23:46;7.00;99.90
17845;DHT22;9047;53.486;10.218;2023-03-01T10:26:35;7.20;99.90
17845;DHT22;9047;53.486;10.218;2023-03-01T10:29:06;7.40;99.90
17845;DHT22;9047;53.486;10.218;2023-03-01T10:31:43;7.60;99.90
17845;DHT22;9047;53.486;10.218;2023-03-01T10:34:15;7.90;99.90
17845;DHT22;9047;53.486;10.218;2023-03-01T10:36:45;7.80;99.90
17845;DHT22;9047;53.486;10.218;2023-03-01T10:39:17;8.10;99.90
17845;DHT22;9047;53.486;10.218;2023-03-01T10:41:55;8.20;99.90
17845;DHT22;9047;53.486;10.218;2023-03-01T10:44:37;8.20;99.90
17845;DHT22;9047;53.486;10.218;2023-03-01T10:47:08;8.30;99.90
17845;DHT22;9047;53.486;10.218;2023-03-01T10:49:52;8.20;99.90
17845;DHT22;9047;53.486;10.218;2023-03-01T10:52:21;8.20;99.90
17845;DHT22;9047;53.486;10.218;2023-03-01T10:54:54;8.20;99.90
17845;DHT22;9047;53.486;10.218;2023-03-01T10:57:39;8.20;99.90
17845;DHT22;9047;53.486;10.218;2023-03-01T11:00:22;8.30;99.90
17845;DHT22;9047;53.486;10.218;2023-03-01T11:03:01;8.20;99.90
17845;DHT22;9047;53.486;10.218;2023-03-01T11:05:31;8.10;99.90
17845;DHT22;9047;53.486;10.218;2023-03-01T11:08:02;8.00;99.90
17845;DHT22;9047;53.486;10.218;2023-03-01T11:10:34;8.00;99.90
17845;DHT22;9047;53.486;10.218;2023-03-01T11:13:13;8.20;99.90
17845;DHT22;9047;53.486;10.218;2023-03-01T11:15:43;8.20;99.90
17845;DHT22;9047;53.486;10.218;2023-03-01T11:18:19;8.20;99.90
17845;DHT22;9047;53.486;10.218;2023-03-01T11:20:52;8.20;99.90
17845;DHT22;9047;53.486;10.218;2023-03-01T11:23:20;8.30;99.90
17845;DHT22;9047;53.486;10.218;2023-03-01T11:25:53;8.50;99.90
17845;DHT22;9047;53.486;10.218;2023-03-01T11:28:21;8.60;99.90
17845;DHT22;9047;53.486;10.218;2023-03-01T11:30:53;8.70;99.90
17845;DHT22;9047;53.486;10.218;2023-03-01T11:33:35;8.70;99.90
17845;DHT22;9047;53.486;10.218;2023-03-01T11:36:08;8.80;99.90
17845;DHT22;9047;53.486;10.218;2023-03-01T11:38:38;9.00;99.90
17845;DHT22;9047;53.486;10.218;2023-03-01T11:41:11;9.10;99.90
17845;DHT22;9047;53.486;10.218;2023-03-01T11:43:47;9.10;99.90
17845;DHT22;9047;53.486;10.218;2023-03-01T11:46:57;9.20;99.90
17845;DHT22;9047;53.486;10.218;2023-03-01T11:52:32;9.30;99.90
17845;DHT22;9047;53.486;10.218;2023-03-01T11:55:17;9.40;99.90
17845;DHT22;9047;53.486;10.218;2023-03-01T11:57:59;9.50;99.90
17845;DHT22;9047;53.486;10.218;2023-03-01T12:00:43;9.50;99.90
17845;DHT22;9047;53.486;10.218;2023-03-01T12:03:28;9.50;99.90
17845;DHT22;9047;53.486;10.218;2023-03-01T12:06:19;9.70;99.90
17845;DHT22;9047;53.486;10.218;2023-03-01T12:11:55;9.90;99.90
17845;DHT22;9047;53.486;10.218;2023-03-01T12:14:51;9.80;99.90
17845;DHT22;9047;53.486;10.218;2023-03-01T12:17:44;10.00;99.90
17845;DHT22;9047;53.486;10.218;2023-03-01T12:20:22;10.00;99.90
17845;DHT22;9047;53.486;10.218;2023-03-01T12:25:45;10.10;99.90
17845;DHT22;9047;53.486;10.218;2023-03-01T12:28:36;10.10;99.90
17845;DHT22;9047;53.486;10.218;2023-03-01T12:31:29;10.30;99.90
17845;DHT22;9047;53.486;10.218;2023-03-01T12:34:15;10.40;99.90
17845;DHT22;9047;53.486;10.218;2023-03-01T12:36:56;10.50;99.90
17845;DHT22;9047;53.486;10.218;2023-03-01T12:39:40;10.50;99.90
17845;DHT22;9047;53.486;10.218;2023-03-01T12:42:21;10.60;99.90
17845;DHT22;9047;53.486;10.218;2023-03-01T12:45:16;10.60;99.90
17845;DHT22;9047;53.486;10.218;2023-03-01T12:47:58;10.60;99.90
17845;DHT22;9047;53.486;10.218;2023-03-01T12:50:38;10.60;99.90
17845;DHT22;9047;53.486;10.218;2023-03-01T12:53:17;10.70;99.90
17845;DHT22;9047;53.486;10.218;2023-03-01T12:55:47;10.70;99.90
17845;DHT22;9047;53.486;10.218;2023-03-01T12:58:26;10.70;99.90
17845;DHT22;9047;53.486;10.218;2023-03-01T13:01:05;10.60;99.90
17845;DHT22;9047;53.486;10.218;2023-03-01T13:03:55;10.70;99.90
17845;DHT22;9047;53.486;10.218;2023-03-01T13:06:33;10.80;99.90
17845;DHT22;9047;53.486;10.218;2023-03-01T13:09:09;10.90;99.90
17845;DHT22;9047;53.486;10.218;2023-03-01T13:11:42;11.00;99.90
17845;DHT22;9047;53.486;10.218;2023-03-01T13:14:42;11.00;99.90
17845;DHT22;9047;53.486;10.218;2023-03-01T13:17:30;11.00;99.90
17845;DHT22;9047;53.486;10.218;2023-03-01T13:19:58;10.90;99.90
17845;DHT22;9047;53.486;10.218;2023-03-01T13:22:28;10.90;99.90
17845;DHT22;9047;53.486;10.218;2023-03-01T13:25:13;10.70;99.90
17845;DHT22;9047;53.486;10.218;2023-03-01T13:27:46;10.70;99.90
17845;DHT22;9047;53.486;10.218;2023-03-01T13:30:42;10.60;99.90
17845;DHT22;9047;53.486;10.218;2023-03-01T13:33:34;10.50;99.90
17845;DHT22;9047;53.486;10.218;2023-03-01T13:36:08;10.40;99.90
17845;DHT22;9047;53.486;10.218;2023-03-01T13:38:55;10.50;99.90
17845;DHT22;9047;53.486;10.218;2023-03-01T13:41:48;10.50;99.90
17845;DHT22;9047;53.486;10.218;2023-03-01T13:44:22;10.60;99.90
17845;DHT22;9047;53.486;10.218;2023-03-01T13:46:59;10.70;99.90
17845;DHT22;9047;53.486;10.218;2023-03-01T13:49:40;10.70;99.90
17845;DHT22;9047;53.486;10.218;2023-03-01T13:52:35;10.40;99.90
17845;DHT22;9047;53.486;10.218;2023-03-01T13:55:04;10.40;99.90
17845;DHT22;9047;53.486;10.218;2023-03-01T13:57:34;10.40;99.90
17845;DHT22;9047;53.486;10.218;2023-03-01T14:00:02;10.50;99.90
17845;DHT22;9047;53.486;10.218;2023-03-01T14:02:31;10.50;99.90
17845;DHT22;9047;53.486;10.218;2023-03-01T14:05:00;10.50;99.90
17845;DHT22;9047;53.486;10.218;2023-03-01T14:07:29;10.60;99.90
17845;DHT22;9047;53.486;10.218;2023-03-01T14:09:59;10.80;99.90
17845;DHT22;9047;53.486;10.218;2023-03-01T14:12:38;10.80;99.90
17845;DHT22;9047;53.486;10.218;2023-03-01T14:15:09;10.80;99.90
17845;DHT22;9047;53.486;10.218;2023-03-01T14:17:52;10.80;99.90
17845;DHT22;9047;53.486;10.218;2023-03-01T14:20:23;10.80;99.90
17845;DHT22;9047;53.486;10.218;2023-03-01T14:22:54;10.90;99.90
17845;DHT22;9047;53.486;10.218;2023-03-01T14:25:26;10.80;99.90
17845;DHT22;9047;53.486;10.218;2023-03-01T14:27:57;10.80;99.90
17845;DHT22;9047;53.486;10.218;2023-03-01T14:30:30;10.90;99.90
17845;DHT22;9047;53.486;10.218;2023-03-01T14:33:04;10.80;99.90
17845;DHT22;9047;53.486;10.218;2023-03-01T14:35:53;10.70;99.90
17845;DHT22;9047;53.486;10.218;2023-03-01T14:38:20;10.80;99.90
17845;DHT22;9047;53.486;10.218;2023-03-01T14:40:51;10.80;99.90
17845;DHT22;9047;53.486;10.218;2023-03-01T14:43:23;10.80;99.90
17845;DHT22;9047;53.486;10.218;2023-03-01T14:45:59;10.80;99.90
17845;DHT22;9047;53.486;10.218;2023-03-01T14:48:32;10.80;99.90
17845;DHT22;9047;53.486;10.218;2023-03-01T14:50:59;11.00;99.90
17845;DHT22;9047;53.486;10.218;2023-03-01T14:53:28;11.50;99.90
17845;DHT22;9047;53.486;10.218;2023-03-01T14:56:00;11.80;99.90
17845;DHT22;9047;53.486;10.218;2023-03-01T14:58:28;11.90;99.90
17845;DHT22;9047;53.486;10.218;2023-03-01T15:01:01;12.00;99.90
17845;DHT22;9047;53.486;10.218;2023-03-01T15:03:34;12.20;99.90
17845;DHT22;9047;53.486;10.218;2023-03-01T15:06:04;12.20;99.90
17845;DHT22;9047;53.486;10.218;2023-03-01T15:08:32;12.10;99.90
17845;DHT22;9047;53.486;10.218;2023-03-01T15:11:03;11.70;99.90
17845;DHT22;9047;53.486;10.218;2023-03-01T15:13:32;11.40;99.90
17845;DHT22;9047;53.486;10.218;2023-03-01T15:16:06;11.20;99.90
17845;DHT22;9047;53.486;10.218;2023-03-01T15:18:44;11.10;99.90
17845;DHT22;9047;53.486;10.218;2023-03-01T15:21:22;11.00;99.90
17845;DHT22;9047;53.486;10.218;2023-03-01T15:23:52;10.80;99.90
17845;DHT22;9047;53.486;10.218;2023-03-01T15:26:25;10.60;99.90
17845;DHT22;9047;53.486;10.218;2023-03-01T15:28:55;10.40;99.90
17845;DHT22;9047;53.486;10.218;2023-03-01T15:31:27;10.30;99.90
17845;DHT22;9047;53.486;10.218;2023-03-01T15:34:20;10.20;99.90
17845;DHT22;9047;53.486;10.218;2023-03-01T15:36:50;10.00;99.90
17845;DHT22;9047;53.486;10.218;2023-03-01T15:39:39;9.90;99.90
17845;DHT22;9047;53.486;10.218;2023-03-01T15:42:35;9.80;99.90
17845;DHT22;9047;53.486;10.218;2023-03-01T15:45:10;9.70;99.90
17845;DHT22;9047;53.486;10.218;2023-03-01T15:47:47;9.60;99.90
17845;DHT22;9047;53.486;10.218;2023-03-01T15:50:19;9.50;99.90
17845;DHT22;9047;53.486;10.218;2023-03-01T15:52:47;9.30;99.90
17845;DHT22;9047;53.486;10.218;2023-03-01T15:55:17;9.30;99.90
17845;DHT22;9047;53.486;10.218;2023-03-01T15:57:44;9.30;99.90
17845;DHT22;9047;53.486;10.218;2023-03-01T16:00:17;9.20;99.90
17845;DHT22;9047;53.486;10.218;2023-03-01T16:02:44;9.10;99.90
17845;DHT22;9047;53.486;10.218;2023-03-01T16:05:18;9.10;99.90
17845;DHT22;9047;53.486;10.218;2023-03-01T16:07:47;8.90;99.90
17845;DHT22;9047;53.486;10.218;2023-03-01T16:10:18;8.90;99.90
17845;DHT22;9047;53.486;10.218;2023-03-01T16:12:46;8.80;99.90
17845;DHT22;9047;53.486;10.218;2023-03-01T16:15:21;8.70;99.90
17845;DHT22;9047;53.486;10.218;2023-03-01T16:17:49;8.60;99.90
17845;DHT22;9047;53.486;10.218;2023-03-01T16:20:18;8.60;99.90
17845;DHT22;9047;53.486;10.218;2023-03-01T16:22:46;8.40;99.90
17845;DHT22;9047;53.486;10.218;2023-03-01T16:25:16;8.30;99.90
17845;DHT22;9047;53.486;10.218;2023-03-01T16:27:45;8.20;99.90
17845;DHT22;9047;53.486;10.218;2023-03-01T16:30:14;8.10;99.90
17845;DHT22;9047;53.486;10.218;2023-03-01T16:32:45;8.00;99.90
17845;DHT22;9047;53.486;10.218;2023-03-01T16:35:16;7.90;99.90
17845;DHT22;9047;53.486;10.218;2023-03-01T16:37:45;7.80;99.90
17845;DHT22;9047;53.486;10.218;2023-03-01T16:40:17;7.70;99.90
17845;DHT22;9047;53.486;10.218;2023-03-01T16:42:48;7.60;99.90
17845;DHT22;9047;53.486;10.218;2023-03-01T16:45:16;7.50;99.90
17845;DHT22;9047;53.486;10.218;2023-03-01T16:47:49;7.30;99.90
17845;DHT22;9047;53.486;10.218;2023-03-01T16:50:16;7.30;99.90
17845;DHT22;9047;53.486;10.218;2023-03-01T16:52:44;7.20;99.90
17845;DHT22;9047;53.486;10.218;2023-03-01T16:55:13;7.10;99.90
17845;DHT22;9047;53.486;10.218;2023-03-01T16:57:41;7.00;99.90
17845;DHT22;9047;53.486;10.218;2023-03-01T17:00:10;6.90;99.90
17845;DHT22;9047;53.486;10.218;2023-03-01T17:02:39;6.80;99.90
17845;DHT22;9047;53.486;10.218;2023-03-01T17:05:09;6.80;99.90
17845;DHT22;9047;53.486;10.218;2023-03-01T17:07:36;6.70;99.90
17845;DHT22;9047;53.486;10.218;2023-03-01T17:10:05;6.60;99.90
17845;DHT22;9047;53.486;10.218;2023-03-01T17:12:35;6.50;99.90
17845;DHT22;9047;53.486;10.218;2023-03-01T17:15:06;6.30;99.90
17845;DHT22;9047;53.486;10.218;2023-03-01T17:17:34;6.30;99.90
17845;DHT22;9047;53.486;10.218;2023-03-01T17:20:04;6.20;99.90
17845;DHT22;9047;53.486;10.218;2023-03-01T17:22:34;6.10;99.90
17845;DHT22;9047;53.486;10.218;2023-03-01T17:25:09;6.00;99.90